createdAt,value
2018-09-15T00:00:39.706Z,10.59
2018-09-15T00:01:49.837Z,10.59
2018-09-15T00:02:59.691Z,10.62
2018-09-15T00:04:09.267Z,10.53
2018-09-15T00:05:19.398Z,10.51
2018-09-15T00:06:29.540Z,10.46
2018-09-15T00:07:39.397Z,10.42
2018-09-15T00:08:49.249Z,10.39
2018-09-15T00:09:59.379Z,10.33
2018-09-15T00:11:08.694Z,10.38
2018-09-15T00:12:18.548Z,10.33
2018-09-15T00:13:28.684Z,10.24
2018-09-15T00:14:38.816Z,10.25
2018-09-15T00:15:47.850Z,10.2
2018-09-15T00:16:58.031Z,10.21
2018-09-15T00:18:07.892Z,10.1
2018-09-15T00:19:18.029Z,10.13
2018-09-15T00:20:27.906Z,10.09
2018-09-15T00:21:38.057Z,10.07
2018-09-15T00:22:48.257Z,10.09
2018-09-15T00:23:58.472Z,10.1
2018-09-15T00:25:08.621Z,10.02
2018-09-15T00:26:18.485Z,10.1
2018-09-15T00:27:28.614Z,9.91
2018-09-15T00:28:38.797Z,9.97
2018-09-15T00:29:48.930Z,9.88
2018-09-15T00:30:58.787Z,9.85
2018-09-15T00:32:08.935Z,9.91
2018-09-15T00:33:18.533Z,9.77
2018-09-15T00:34:28.439Z,9.81
2018-09-15T00:35:38.568Z,9.76
2018-09-15T00:36:48.429Z,9.8
2018-09-15T00:37:58.293Z,9.77
2018-09-15T00:39:08.422Z,9.58
2018-09-15T00:40:18.609Z,9.64
2018-09-15T00:41:28.741Z,9.55
2018-09-15T00:42:38.868Z,9.55
2018-09-15T00:43:48.717Z,9.64
2018-09-15T00:44:58.851Z,9.54
2018-09-15T00:46:08.749Z,9.56
2018-09-15T00:47:18.878Z,9.54
2018-09-15T00:48:28.740Z,9.56
2018-09-15T00:49:38.321Z,9.54
2018-09-15T00:50:48.446Z,9.58
2018-09-15T00:51:58.573Z,9.54
2018-09-15T00:53:08.423Z,9.45
2018-09-15T00:54:18.553Z,9.52
2018-09-15T00:55:28.409Z,9.51
2018-09-15T00:56:38.535Z,9.49
2018-09-15T00:57:48.769Z,9.49
2018-09-15T00:58:58.618Z,9.44
2018-09-15T01:00:08.193Z,9.39
2018-09-15T01:01:18.325Z,9.42
2018-09-15T01:02:28.174Z,9.34
2018-09-15T01:03:38.352Z,9.31
2018-09-15T01:04:48.470Z,9.22
2018-09-15T01:05:58.320Z,9.24
2018-09-15T01:07:08.447Z,9.3
2018-09-15T01:08:18.307Z,9.18
2018-09-15T01:09:28.168Z,9.16
2018-09-15T01:10:37.746Z,9.16
2018-09-15T01:11:47.873Z,9.16
2018-09-15T01:12:57.450Z,9.15
2018-09-15T01:14:07.519Z,9.09
2018-09-15T01:15:18.100Z,9.12
2018-09-15T01:16:27.955Z,9.12
2018-09-15T01:17:37.809Z,9.08
2018-09-15T01:18:47.930Z,8.99
2018-09-15T01:19:58.204Z,8.97
2018-09-15T01:21:08.564Z,8.87
2018-09-15T01:22:18.686Z,8.9
2018-09-15T01:23:28.279Z,8.87
2018-09-15T01:24:38.128Z,8.86
2018-09-15T01:25:48.251Z,8.78
2018-09-15T01:26:58.491Z,8.92
2018-09-15T01:28:08.625Z,8.78
2018-09-15T01:29:18.473Z,8.81
2018-09-15T01:30:28.597Z,8.77
2018-09-15T01:31:37.902Z,8.79
2018-09-15T01:32:48.043Z,8.75
2018-09-15T01:33:57.891Z,8.72
2018-09-15T01:35:07.752Z,8.69
2018-09-15T01:36:17.050Z,8.56
2018-09-15T01:37:27.179Z,8.44
2018-09-15T01:38:37.317Z,8.46
2018-09-15T01:39:47.172Z,8.42
2018-09-15T01:40:57.029Z,8.39
2018-09-15T01:42:06.906Z,8.36
2018-09-15T01:43:17.038Z,8.34
2018-09-15T01:44:27.213Z,8.21
2018-09-15T01:45:37.335Z,8.24
2018-09-15T01:46:47.462Z,8.2
2018-09-15T01:47:57.582Z,8.23
2018-09-15T01:49:07.161Z,8.32
2018-09-15T01:50:17.336Z,8.32
2018-09-15T01:51:27.456Z,8.27
2018-09-15T01:52:37.306Z,8.21
2018-09-15T01:53:47.161Z,8.21
2018-09-15T01:54:57.288Z,8.23
2018-09-15T01:56:06.919Z,8.26
2018-09-15T01:57:17.042Z,8.26
2018-09-15T01:58:27.202Z,8.28
2018-09-15T01:59:37.063Z,8.24
2018-09-15T02:00:46.931Z,8.34
2018-09-15T02:01:56.833Z,8.26
2018-09-15T02:03:06.686Z,8.28
2018-09-15T02:04:16.588Z,8.32
2018-09-15T02:05:26.711Z,8.26
2018-09-15T02:06:36.839Z,8.24
2018-09-15T02:07:46.688Z,8.18
2018-09-15T02:08:56.538Z,8.13
2018-09-15T02:10:06.391Z,8.13
2018-09-15T02:11:16.516Z,8.03
2018-09-15T02:12:26.644Z,7.95
2018-09-15T02:13:36.500Z,7.98
2018-09-15T02:14:46.078Z,7.96
2018-09-15T02:15:55.663Z,7.91
2018-09-15T02:17:05.507Z,7.93
2018-09-15T02:18:15.641Z,7.9
2018-09-15T02:19:25.925Z,7.88
2018-09-15T02:20:36.051Z,7.74
2018-09-15T02:21:46.181Z,7.81
2018-09-15T02:22:56.487Z,7.8
2018-09-15T02:24:06.636Z,7.78
2018-09-15T02:25:16.805Z,7.78
2018-09-15T02:26:26.929Z,7.74
2018-09-15T02:27:36.788Z,7.8
2018-09-15T02:28:46.365Z,7.81
2018-09-15T02:29:56.285Z,7.78
2018-09-15T02:31:06.146Z,7.72
2018-09-15T02:32:16.277Z,7.69
2018-09-15T02:33:26.129Z,7.7
2018-09-15T02:34:36.259Z,7.69
2018-09-15T02:35:46.391Z,7.67
2018-09-15T02:36:56.564Z,7.67
2018-09-15T02:38:06.701Z,7.67
2018-09-15T02:39:16.285Z,7.75
2018-09-15T02:40:26.149Z,7.78
2018-09-15T02:41:36.279Z,7.8
2018-09-15T02:42:46.459Z,7.8
2018-09-15T02:43:56.592Z,7.81
2018-09-15T02:45:06.449Z,7.87
2018-09-15T02:46:16.316Z,7.83
2018-09-15T02:47:26.453Z,7.78
2018-09-15T02:48:36.632Z,7.75
2018-09-15T02:49:46.755Z,7.72
2018-09-15T02:50:56.892Z,7.72
2018-09-15T02:52:06.748Z,7.67
2018-09-15T02:53:16.878Z,7.66
2018-09-15T02:54:26.482Z,7.69
2018-09-15T02:55:36.631Z,7.69
2018-09-15T02:56:46.485Z,7.7
2018-09-15T02:57:56.620Z,7.7
2018-09-15T02:59:06.481Z,7.72
2018-09-15T03:00:16.102Z,7.75
2018-09-15T03:01:25.966Z,7.77
2018-09-15T03:02:35.826Z,7.72
2018-09-15T03:03:45.960Z,7.78
2018-09-15T03:04:56.092Z,7.81
2018-09-15T03:06:05.943Z,7.75
2018-09-15T03:07:15.807Z,7.78
2018-09-15T03:08:25.953Z,7.77
2018-09-15T03:09:35.535Z,7.81
2018-09-15T03:10:45.925Z,7.83
2018-09-15T03:11:56.059Z,7.77
2018-09-15T03:13:05.905Z,7.87
2018-09-15T03:14:16.051Z,7.85
2018-09-15T03:15:25.913Z,7.91
2018-09-15T03:16:36.045Z,7.88
2018-09-15T03:17:45.953Z,7.8
2018-09-15T03:18:56.087Z,7.78
2018-09-15T03:20:05.948Z,7.74
2018-09-15T03:21:16.076Z,7.74
2018-09-15T03:22:25.673Z,7.74
2018-09-15T03:23:35.806Z,7.64
2018-09-15T03:24:45.659Z,7.59
2018-09-15T03:25:55.514Z,7.53
2018-09-15T03:27:05.640Z,7.59
2018-09-15T03:28:15.489Z,7.51
2018-09-15T03:29:25.679Z,7.46
2018-09-15T03:30:35.556Z,7.41
2018-09-15T03:31:45.416Z,7.41
2018-09-15T03:32:55.283Z,7.4
2018-09-15T03:34:05.416Z,7.37
2018-09-15T03:35:15.593Z,7.36
2018-09-15T03:36:25.730Z,7.41
2018-09-15T03:37:35.582Z,7.39
2018-09-15T03:38:45.431Z,7.4
2018-09-15T03:39:55.285Z,7.4
2018-09-15T03:41:05.413Z,7.41
2018-09-15T03:42:15.542Z,7.43
2018-09-15T03:43:25.674Z,7.39
2018-09-15T03:44:35.806Z,7.39
2018-09-15T03:45:45.658Z,7.22
2018-09-15T03:46:55.836Z,7.26
2018-09-15T03:48:05.962Z,7.23
2018-09-15T03:49:15.824Z,7.23
2018-09-15T03:50:25.400Z,7.23
2018-09-15T03:51:35.523Z,7.26
2018-09-15T03:52:45.653Z,7.21
2018-09-15T03:53:55.783Z,7.21
2018-09-15T03:55:05.915Z,7.21
2018-09-15T03:56:16.050Z,7.19
2018-09-15T03:57:25.905Z,7.23
2018-09-15T03:58:36.104Z,7.21
2018-09-15T03:59:46.241Z,7.21
2018-09-15T04:00:56.479Z,7.14
2018-09-15T04:02:06.084Z,7.18
2018-09-15T04:03:16.253Z,7.26
2018-09-15T04:04:26.450Z,7.22
2018-09-15T04:05:36.301Z,7.23
2018-09-15T04:06:46.439Z,7.32
2018-09-15T04:07:56.574Z,7.29
2018-09-15T04:09:06.424Z,7.26
2018-09-15T04:10:16.558Z,7.18
2018-09-15T04:11:26.685Z,7.23
2018-09-15T04:12:36.541Z,7.13
2018-09-15T04:13:46.668Z,7.13
2018-09-15T04:14:56.792Z,7.23
2018-09-15T04:16:06.420Z,7.18
2018-09-15T04:17:16.546Z,7.19
2018-09-15T04:18:26.126Z,7.05
2018-09-15T04:19:35.976Z,7.07
2018-09-15T04:20:45.283Z,7.05
2018-09-15T04:21:54.881Z,7.11
2018-09-15T04:23:05.018Z,7.05
2018-09-15T04:24:15.148Z,7.11
2018-09-15T04:25:25.298Z,7.1
2018-09-15T04:26:35.168Z,7.1
2018-09-15T04:27:45.124Z,7.03
2018-09-15T04:28:54.981Z,7.04
2018-09-15T04:30:05.118Z,7.07
2018-09-15T04:31:14.694Z,7
2018-09-15T04:32:24.818Z,7.07
2018-09-15T04:33:34.997Z,7.05
2018-09-15T04:34:45.153Z,7.01
2018-09-15T04:35:55.002Z,6.9
2018-09-15T04:37:05.133Z,6.92
2018-09-15T04:38:14.982Z,6.9
2018-09-15T04:39:25.176Z,6.96
2018-09-15T04:40:35.320Z,7.03
2018-09-15T04:41:45.748Z,6.95
2018-09-15T04:42:55.547Z,6.96
2018-09-15T04:44:05.676Z,6.97
2018-09-15T04:45:15.301Z,6.96
2018-09-15T04:46:25.433Z,7.04
2018-09-15T04:47:35.283Z,6.97
2018-09-15T04:48:45.148Z,7.01
2018-09-15T04:49:55.277Z,7
2018-09-15T04:51:05.453Z,7
2018-09-15T04:52:15.323Z,7
2018-09-15T04:53:25.448Z,6.86
2018-09-15T04:54:35.574Z,6.85
2018-09-15T04:55:45.157Z,6.92
2018-09-15T04:56:55.062Z,6.9
2018-09-15T04:58:04.637Z,6.95
2018-09-15T04:59:14.767Z,6.92
2018-09-15T05:00:24.897Z,6.92
2018-09-15T05:01:34.486Z,6.93
2018-09-15T05:02:44.662Z,6.95
2018-09-15T05:03:54.515Z,6.92
2018-09-15T05:05:04.648Z,6.95
2018-09-15T05:06:14.772Z,6.9
2018-09-15T05:07:24.899Z,6.92
2018-09-15T05:08:35.079Z,6.97
2018-09-15T05:09:44.653Z,6.95
2018-09-15T05:10:54.791Z,7.05
2018-09-15T05:12:04.916Z,7.03
2018-09-15T05:13:15.048Z,7.07
2018-09-15T05:14:24.950Z,7.04
2018-09-15T05:15:35.079Z,7.05
2018-09-15T05:16:45.005Z,7.11
2018-09-15T05:17:55.142Z,7.19
2018-09-15T05:19:04.440Z,7.18
2018-09-15T05:20:14.349Z,7.21
2018-09-15T05:21:24.468Z,7.14
2018-09-15T05:22:34.050Z,7.11
2018-09-15T05:23:44.182Z,7.22
2018-09-15T05:24:54.306Z,7.29
2018-09-15T05:26:04.203Z,7.29
2018-09-15T05:27:14.053Z,7.32
2018-09-15T05:28:23.900Z,7.26
2018-09-15T05:29:33.749Z,7.29
2018-09-15T05:30:43.879Z,7.31
2018-09-15T05:31:53.778Z,7.31
2018-09-15T05:33:03.634Z,7.25
2018-09-15T05:34:13.761Z,7.36
2018-09-15T05:35:23.614Z,7.29
2018-09-15T05:36:33.744Z,7.36
2018-09-15T05:37:43.926Z,7.36
2018-09-15T05:38:53.778Z,7.36
2018-09-15T05:40:03.998Z,7.43
2018-09-15T05:41:13.657Z,7.41
2018-09-15T05:42:23.231Z,7.46
2018-09-15T05:43:33.135Z,7.46
2018-09-15T05:44:43.262Z,7.66
2018-09-15T05:45:53.113Z,7.59
2018-09-15T05:47:02.964Z,7.51
2018-09-15T05:48:13.093Z,7.67
2018-09-15T05:49:22.992Z,7.64
2018-09-15T05:50:32.865Z,7.67
2018-09-15T05:51:42.996Z,7.77
2018-09-15T05:52:52.846Z,7.78
2018-09-15T05:54:02.968Z,7.74
2018-09-15T05:55:12.610Z,7.9
2018-09-15T05:56:22.750Z,7.95
2018-09-15T05:57:32.605Z,7.93
2018-09-15T05:58:42.452Z,7.96
2018-09-15T05:59:52.577Z,7.93
2018-09-15T06:01:02.852Z,8.03
2018-09-15T06:02:12.701Z,8.01
2018-09-15T06:03:22.844Z,8.13
2018-09-15T06:04:32.989Z,8.21
2018-09-15T06:05:42.847Z,8.21
2018-09-15T06:06:52.930Z,8.2
2018-09-15T06:08:02.866Z,8.2
2018-09-15T06:09:12.447Z,8.28
2018-09-15T06:10:22.295Z,8.21
2018-09-15T06:11:32.147Z,8.2
2018-09-15T06:12:42.381Z,8.28
2018-09-15T06:13:52.501Z,8.26
2018-09-15T06:15:02.703Z,8.38
2018-09-15T06:16:12.555Z,8.36
2018-09-15T06:17:22.133Z,8.39
2018-09-15T06:18:32.041Z,8.41
2018-09-15T06:19:41.899Z,8.41
2018-09-15T06:20:51.761Z,8.45
2018-09-15T06:22:01.620Z,8.61
2018-09-15T06:23:11.200Z,8.56
2018-09-15T06:24:21.108Z,8.68
2018-09-15T06:25:30.961Z,8.66
2018-09-15T06:26:41.089Z,8.63
2018-09-15T06:27:50.938Z,8.78
2018-09-15T06:29:00.789Z,8.77
2018-09-15T06:30:10.981Z,8.78
2018-09-15T06:31:20.831Z,8.78
2018-09-15T06:32:30.960Z,8.79
2018-09-15T06:33:40.824Z,8.81
2018-09-15T06:34:50.953Z,8.89
2018-09-15T06:36:00.857Z,8.92
2018-09-15T06:37:10.989Z,8.82
2018-09-15T06:38:21.112Z,8.95
2018-09-15T06:39:31.137Z,9
2018-09-15T06:40:41.265Z,9
2018-09-15T06:41:51.116Z,9.08
2018-09-15T06:43:01.243Z,9.12
2018-09-15T06:44:11.093Z,9.19
2018-09-15T06:45:21.264Z,9.21
2018-09-15T06:46:31.631Z,9.21
2018-09-15T06:47:41.816Z,9.22
2018-09-15T06:48:51.665Z,9.31
2018-09-15T06:50:01.793Z,9.3
2018-09-15T06:51:11.660Z,9.33
2018-09-15T06:52:21.846Z,9.39
2018-09-15T06:53:31.748Z,9.49
2018-09-15T06:54:41.898Z,9.48
2018-09-15T06:55:52.061Z,9.56
2018-09-15T06:57:01.644Z,9.55
2018-09-15T06:58:11.515Z,9.54
2018-09-15T06:59:23.086Z,9.67
2018-09-15T07:00:33.220Z,9.67
2018-09-15T07:01:43.348Z,9.64
2018-09-15T07:02:53.483Z,9.76
2018-09-15T07:04:03.606Z,9.81
2018-09-15T07:05:13.728Z,9.76
2018-09-15T07:06:23.309Z,9.9
2018-09-15T07:07:33.166Z,9.9
2018-09-15T07:08:42.474Z,9.91
2018-09-15T07:09:52.610Z,9.92
2018-09-15T07:11:02.789Z,9.94
2018-09-15T07:12:12.921Z,10.05
2018-09-15T07:13:22.778Z,10.07
2018-09-15T07:14:32.363Z,10.09
2018-09-15T07:15:42.490Z,10.15
2018-09-15T07:16:52.616Z,10.15
2018-09-15T07:18:02.741Z,10.27
2018-09-15T07:19:12.872Z,10.27
2018-09-15T07:20:23.001Z,10.39
2018-09-15T07:21:32.310Z,10.48
2018-09-15T07:22:41.938Z,10.49
2018-09-15T07:23:52.062Z,10.53
2018-09-15T07:25:01.919Z,10.53
2018-09-15T07:26:11.501Z,10.59
2018-09-15T07:27:21.627Z,10.59
2018-09-15T07:28:31.536Z,10.62
2018-09-15T07:29:41.403Z,10.68
2018-09-15T07:30:51.254Z,10.76
2018-09-15T07:32:01.306Z,10.8
2018-09-15T07:33:11.468Z,10.92
2018-09-15T07:34:21.094Z,10.94
2018-09-15T07:35:30.678Z,11.04
2018-09-15T07:36:40.818Z,10.95
2018-09-15T07:37:51.304Z,11.07
2018-09-15T07:39:00.890Z,11.02
2018-09-15T07:40:10.800Z,11.08
2018-09-15T07:41:20.659Z,11.18
2018-09-15T07:42:30.520Z,11.19
2018-09-15T07:43:40.659Z,11.26
2018-09-15T07:44:50.112Z,11.33
2018-09-15T07:45:59.691Z,11.33
2018-09-15T07:47:09.833Z,11.48
2018-09-15T07:48:19.963Z,11.55
2018-09-15T07:49:29.816Z,11.48
2018-09-15T07:50:39.946Z,11.49
2018-09-15T07:51:50.399Z,11.58
2018-09-15T07:53:00.283Z,11.56
2018-09-15T07:54:10.567Z,11.63
2018-09-15T07:55:19.885Z,11.59
2018-09-15T07:56:30.041Z,11.53
2018-09-15T07:57:40.408Z,11.58
2018-09-15T07:58:50.454Z,11.43
2018-09-15T08:00:00.616Z,11.49
2018-09-15T08:01:10.221Z,11.53
2018-09-15T08:02:20.074Z,11.6
2018-09-15T08:03:29.989Z,11.67
2018-09-15T08:04:40.131Z,11.59
2018-09-15T08:05:50.259Z,11.81
2018-09-15T08:07:00.112Z,11.93
2018-09-15T08:08:09.967Z,11.96
2018-09-15T08:09:19.821Z,12.03
2018-09-15T08:10:29.399Z,12.15
2018-09-15T08:11:39.534Z,12.17
2018-09-15T08:12:49.669Z,12.3
2018-09-15T08:13:58.982Z,12.32
2018-09-15T08:15:08.839Z,12.36
2018-09-15T08:16:18.971Z,12.51
2018-09-15T08:17:28.824Z,12.53
2018-09-15T08:18:38.967Z,12.51
2018-09-15T08:19:49.102Z,12.66
2018-09-15T08:20:59.356Z,12.43
2018-09-15T08:22:08.659Z,12.47
2018-09-15T08:23:18.521Z,12.57
2018-09-15T08:24:27.832Z,12.5
2018-09-15T08:25:37.691Z,12.57
2018-09-15T08:26:47.826Z,12.55
2018-09-15T08:27:57.962Z,12.7
2018-09-15T08:29:08.101Z,12.78
2018-09-15T08:30:18.232Z,12.73
2018-09-15T08:31:28.083Z,12.87
2018-09-15T08:32:38.209Z,13.02
2018-09-15T08:33:48.343Z,12.99
2018-09-15T08:34:57.929Z,13.06
2018-09-15T08:36:07.788Z,13.12
2018-09-15T08:37:17.639Z,13.21
2018-09-15T08:38:27.571Z,13.16
2018-09-15T08:39:37.703Z,12.99
2018-09-15T08:40:47.009Z,12.98
2018-09-15T08:41:56.591Z,13.06
2018-09-15T08:43:06.177Z,13.12
2018-09-15T08:44:16.049Z,13.26
2018-09-15T08:45:26.189Z,13.26
2018-09-15T08:46:36.315Z,13.39
2018-09-15T08:47:46.176Z,13.39
2018-09-15T08:48:56.312Z,13.36
2018-09-15T08:50:06.449Z,13.46
2018-09-15T08:51:16.316Z,13.5
2018-09-15T08:52:26.459Z,13.58
2018-09-15T08:53:36.309Z,13.5
2018-09-15T08:54:45.898Z,13.46
2018-09-15T08:55:55.760Z,13.52
2018-09-15T08:57:05.966Z,13.43
2018-09-15T08:58:15.829Z,13.37
2018-09-15T08:59:25.691Z,13.39
2018-09-15T09:00:35.834Z,13.43
2018-09-15T09:01:45.703Z,13.45
2018-09-15T09:02:55.835Z,13.47
2018-09-15T09:04:05.973Z,13.49
2018-09-15T09:05:16.107Z,13.5
2018-09-15T09:06:26.241Z,13.58
2018-09-15T09:07:36.189Z,13.54
2018-09-15T09:08:46.319Z,13.62
2018-09-15T09:09:56.451Z,13.57
2018-09-15T09:11:06.051Z,13.49
2018-09-15T09:12:15.633Z,13.55
2018-09-15T09:13:25.489Z,13.58
2018-09-15T09:14:35.630Z,13.62
2018-09-15T09:15:45.764Z,13.62
2018-09-15T09:16:55.618Z,13.58
2018-09-15T09:18:05.201Z,13.65
2018-09-15T09:19:15.058Z,13.58
2018-09-15T09:20:24.365Z,13.37
2018-09-15T09:21:33.949Z,13.36
2018-09-15T09:22:44.085Z,13.33
2018-09-15T09:23:53.664Z,13.33
2018-09-15T09:25:03.593Z,13.4
2018-09-15T09:26:13.509Z,13.46
2018-09-15T09:27:24.010Z,13.49
2018-09-15T09:28:33.589Z,13.61
2018-09-15T09:29:43.731Z,13.73
2018-09-15T09:30:53.912Z,13.71
2018-09-15T09:32:03.767Z,13.8
2018-09-15T09:33:13.791Z,13.83
2018-09-15T09:34:24.140Z,13.87
2018-09-15T09:35:34.267Z,13.79
2018-09-15T09:36:44.132Z,13.89
2018-09-15T09:37:53.716Z,13.95
2018-09-15T09:39:03.846Z,14
2018-09-15T09:40:13.982Z,14.07
2018-09-15T09:41:24.223Z,14.11
2018-09-15T09:42:34.479Z,14.12
2018-09-15T09:43:44.078Z,14.12
2018-09-15T09:44:54.206Z,14.07
2018-09-15T09:46:04.343Z,14.16
2018-09-15T09:47:14.469Z,14.15
2018-09-15T09:48:24.984Z,14.18
2018-09-15T09:49:35.115Z,14.15
2018-09-15T09:50:44.968Z,14.22
2018-09-15T09:51:55.098Z,14.08
2018-09-15T09:53:05.234Z,13.86
2018-09-15T09:54:15.366Z,13.83
2018-09-15T09:55:25.233Z,14.04
2018-09-15T09:56:35.364Z,14.05
2018-09-15T09:57:45.498Z,14.05
2018-09-15T09:58:55.639Z,14.16
2018-09-15T10:00:05.505Z,14.2
2018-09-15T10:01:15.821Z,14.23
2018-09-15T10:02:26.334Z,14.18
2018-09-15T10:03:36.473Z,14.25
2018-09-15T10:04:46.331Z,14.34
2018-09-15T10:05:56.190Z,14.26
2018-09-15T10:07:06.533Z,14.3
2018-09-15T10:08:16.970Z,14.28
2018-09-15T10:09:26.877Z,14.31
2018-09-15T10:10:36.456Z,14.26
2018-09-15T10:11:46.597Z,14.3
2018-09-15T10:12:56.463Z,14.22
2018-09-15T10:14:05.773Z,14.23
2018-09-15T10:15:15.911Z,14.23
2018-09-15T10:16:26.408Z,14.22
2018-09-15T10:17:36.013Z,14.23
2018-09-15T10:18:46.149Z,14.13
2018-09-15T10:19:56.006Z,14.08
2018-09-15T10:21:06.139Z,14.11
2018-09-15T10:22:15.999Z,14
2018-09-15T10:23:26.136Z,13.82
2018-09-15T10:24:35.989Z,13.8
2018-09-15T10:25:46.132Z,14.03
2018-09-15T10:26:56.270Z,13.97
2018-09-15T10:28:05.855Z,13.97
2018-09-15T10:29:15.984Z,13.87
2018-09-15T10:30:25.841Z,13.78
2018-09-15T10:31:35.968Z,13.83
2018-09-15T10:32:46.108Z,13.8
2018-09-15T10:33:55.980Z,13.91
2018-09-15T10:35:05.839Z,13.78
2018-09-15T10:36:15.695Z,13.85
2018-09-15T10:37:25.549Z,13.8
2018-09-15T10:38:36.015Z,13.86
2018-09-15T10:39:46.230Z,13.78
2018-09-15T10:40:56.092Z,13.76
2018-09-15T10:42:05.962Z,13.83
2018-09-15T10:43:15.819Z,13.73
2018-09-15T10:44:25.949Z,13.76
2018-09-15T10:45:36.087Z,13.78
2018-09-15T10:46:46.238Z,13.75
2018-09-15T10:47:55.875Z,13.86
2018-09-15T10:49:05.739Z,13.89
2018-09-15T10:50:15.596Z,13.86
2018-09-15T10:51:25.182Z,13.76
2018-09-15T10:52:35.198Z,13.75
2018-09-15T10:53:45.336Z,13.68
2018-09-15T10:54:55.467Z,13.64
2018-09-15T10:56:05.597Z,13.67
2018-09-15T10:57:14.906Z,13.7
2018-09-15T10:58:24.761Z,13.73
2018-09-15T10:59:34.948Z,13.67
2018-09-15T11:00:45.367Z,13.8
2018-09-15T11:01:55.403Z,13.8
2018-09-15T11:03:04.987Z,13.82
2018-09-15T11:04:14.852Z,13.86
2018-09-15T11:05:24.702Z,13.85
2018-09-15T11:06:34.560Z,13.86
2018-09-15T11:07:44.708Z,13.86
2018-09-15T11:08:54.837Z,13.76
2018-09-15T11:10:04.968Z,13.58
2018-09-15T11:11:14.822Z,13.67
2018-09-15T11:12:24.676Z,13.61
2018-09-15T11:13:34.395Z,13.52
2018-09-15T11:14:44.111Z,13.54
2018-09-15T11:15:54.241Z,13.46
2018-09-15T11:17:03.823Z,13.49
2018-09-15T11:18:13.685Z,13.42
2018-09-15T11:19:23.547Z,13.54
2018-09-15T11:20:32.857Z,13.67
2018-09-15T11:21:42.437Z,13.67
2018-09-15T11:22:52.830Z,13.62
2018-09-15T11:24:03.353Z,13.55
2018-09-15T11:25:13.485Z,13.6
2018-09-15T11:26:23.613Z,13.49
2018-09-15T11:27:33.798Z,13.43
2018-09-15T11:28:43.823Z,13.47
2018-09-15T11:29:54.214Z,13.43
2018-09-15T11:31:04.074Z,13.46
2018-09-15T11:32:13.928Z,13.45
2018-09-15T11:33:24.106Z,13.49
2018-09-15T11:34:33.959Z,13.46
2018-09-15T11:35:43.814Z,13.49
2018-09-15T11:36:53.675Z,13.54
2018-09-15T11:38:03.807Z,13.58
2018-09-15T11:39:13.660Z,13.55
2018-09-15T11:40:23.790Z,13.54
2018-09-15T11:41:33.967Z,13.6
2018-09-15T11:42:43.825Z,13.61
2018-09-15T11:43:53.683Z,13.58
2018-09-15T11:45:03.547Z,13.52
2018-09-15T11:46:13.403Z,13.5
2018-09-15T11:47:22.717Z,13.47
2018-09-15T11:48:32.843Z,13.5
2018-09-15T11:49:42.991Z,13.5
2018-09-15T11:50:52.570Z,13.52
2018-09-15T11:52:02.432Z,13.57
2018-09-15T11:53:12.563Z,13.52
2018-09-15T11:54:22.152Z,13.64
2018-09-15T11:55:31.731Z,13.54
2018-09-15T11:56:41.859Z,13.61
2018-09-15T11:57:51.441Z,13.62
2018-09-15T11:59:01.301Z,13.57
2018-09-15T12:00:11.055Z,13.62
2018-09-15T12:01:20.974Z,13.67
2018-09-15T12:02:31.098Z,13.71
2018-09-15T12:03:41.230Z,13.67
2018-09-15T12:04:51.425Z,13.65
2018-09-15T12:06:01.582Z,13.62
2018-09-15T12:07:11.710Z,13.61
2018-09-15T12:08:21.616Z,13.55
2018-09-15T12:09:31.748Z,13.5
2018-09-15T12:10:41.610Z,13.62
2018-09-15T12:11:51.754Z,13.62
2018-09-15T12:13:01.609Z,13.65
2018-09-15T12:14:11.014Z,13.62
2018-09-15T12:15:21.016Z,13.62
2018-09-15T12:16:30.879Z,13.7
2018-09-15T12:17:41.037Z,13.68
2018-09-15T12:18:50.897Z,13.83
2018-09-15T12:20:00.756Z,13.75
2018-09-15T12:21:10.612Z,13.75
2018-09-15T12:22:20.834Z,13.82
2018-09-15T12:23:30.417Z,13.83
2018-09-15T12:24:40.546Z,13.8
2018-09-15T12:25:49.938Z,13.76
2018-09-15T12:26:59.804Z,13.97
2018-09-15T12:28:09.662Z,13.85
2018-09-15T12:29:19.787Z,13.87
2018-09-15T12:30:29.101Z,13.95
2018-09-15T12:31:39.239Z,13.93
2018-09-15T12:32:49.096Z,13.93
2018-09-15T12:33:58.949Z,13.89
2018-09-15T12:35:08.803Z,13.85
2018-09-15T12:36:18.946Z,13.86
2018-09-15T12:37:28.852Z,13.82
2018-09-15T12:38:38.986Z,13.98
2018-09-15T12:39:49.119Z,13.91
2018-09-15T12:40:58.699Z,13.95
2018-09-15T12:42:08.620Z,13.95
2018-09-15T12:43:17.923Z,14.08
2018-09-15T12:44:27.584Z,14.12
2018-09-15T12:45:37.449Z,14.11
2018-09-15T12:46:47.302Z,14.11
2018-09-15T12:47:56.609Z,14.11
2018-09-15T12:49:06.466Z,14.04
2018-09-15T12:50:16.045Z,13.98
2018-09-15T12:51:25.640Z,13.95
2018-09-15T12:52:35.770Z,13.98
2018-09-15T12:53:45.629Z,13.94
2018-09-15T12:54:55.587Z,13.89
2018-09-15T12:56:05.448Z,13.86
2018-09-15T12:57:15.029Z,13.85
2018-09-15T12:58:24.889Z,13.86
2018-09-15T12:59:34.472Z,13.8
2018-09-15T13:00:44.061Z,13.82
2018-09-15T13:01:54.194Z,13.85
2018-09-15T13:03:04.331Z,13.75
2018-09-15T13:04:14.192Z,13.82
2018-09-15T13:05:24.327Z,13.73
2018-09-15T13:06:34.781Z,13.89
2018-09-15T13:07:44.664Z,13.75
2018-09-15T13:08:54.518Z,13.71
2018-09-15T13:10:04.652Z,13.76
2018-09-15T13:11:14.236Z,13.65
2018-09-15T13:12:24.094Z,13.68
2018-09-15T13:13:33.400Z,13.67
2018-09-15T13:14:43.533Z,13.7
2018-09-15T13:15:53.121Z,13.6
2018-09-15T13:17:03.255Z,13.65
2018-09-15T13:18:13.123Z,13.57
2018-09-15T13:19:23.253Z,13.58
2018-09-15T13:20:33.116Z,13.52
2018-09-15T13:21:42.982Z,13.5
2018-09-15T13:22:52.836Z,13.6
2018-09-15T13:24:02.685Z,13.62
2018-09-15T13:25:12.540Z,13.71
2018-09-15T13:26:22.124Z,13.62
2018-09-15T13:27:31.706Z,13.65
2018-09-15T13:28:41.319Z,13.62
2018-09-15T13:29:51.979Z,13.71
2018-09-15T13:31:02.303Z,13.62
2018-09-15T13:32:12.175Z,13.68
2018-09-15T13:33:22.307Z,13.62
2018-09-15T13:34:32.441Z,13.67
2018-09-15T13:35:42.578Z,13.62
2018-09-15T13:36:52.707Z,13.68
2018-09-15T13:38:03.143Z,13.62
2018-09-15T13:39:13.004Z,13.64
2018-09-15T13:40:22.862Z,13.64
2018-09-15T13:41:33.007Z,13.67
2018-09-15T13:42:43.137Z,13.67
2018-09-15T13:43:53.003Z,13.76
2018-09-15T13:45:02.860Z,13.67
2018-09-15T13:46:12.998Z,13.62
2018-09-15T13:47:23.134Z,13.64
2018-09-15T13:48:33.270Z,13.68
2018-09-15T13:49:43.127Z,13.7
2018-09-15T13:50:53.267Z,13.62
2018-09-15T13:52:03.392Z,13.61
2018-09-15T13:53:13.648Z,13.62
2018-09-15T13:54:22.983Z,13.61
2018-09-15T13:55:32.565Z,13.65
2018-09-15T13:56:42.164Z,13.64
2018-09-15T13:57:51.469Z,13.67
2018-09-15T13:59:01.885Z,13.62
2018-09-15T14:00:11.790Z,13.68
2018-09-15T14:01:21.922Z,13.65
2018-09-15T14:02:32.049Z,13.7
2018-09-15T14:03:41.631Z,13.67
2018-09-15T14:04:51.390Z,13.67
2018-09-15T14:06:01.654Z,13.62
2018-09-15T14:07:11.519Z,13.73
2018-09-15T14:08:21.377Z,13.62
2018-09-15T14:09:30.688Z,13.67
2018-09-15T14:10:52.033Z,13.54
2018-09-15T14:12:01.695Z,13.49
2018-09-15T14:13:11.826Z,13.52
2018-09-15T14:14:21.956Z,13.55
2018-09-15T14:15:31.811Z,13.55
2018-09-15T14:16:42.027Z,13.55
2018-09-15T14:17:52.283Z,13.5
2018-09-15T14:19:02.415Z,13.47
2018-09-15T14:20:11.998Z,13.49
2018-09-15T14:21:22.128Z,13.4
2018-09-15T14:22:32.266Z,13.45
2018-09-15T14:23:42.134Z,13.43
2018-09-15T14:24:52.261Z,13.45
2018-09-15T14:26:02.122Z,13.5
2018-09-15T14:27:11.995Z,13.49
2018-09-15T14:28:22.268Z,13.46
2018-09-15T14:29:32.542Z,13.37
2018-09-15T14:30:42.392Z,13.46
2018-09-15T14:31:52.527Z,13.39
2018-09-15T14:33:02.661Z,13.33
2018-09-15T14:34:12.791Z,13.33
2018-09-15T14:35:22.096Z,13.45
2018-09-15T14:36:32.232Z,13.31
2018-09-15T14:37:42.360Z,13.33
2018-09-15T14:38:52.515Z,13.33
2018-09-15T14:40:02.698Z,13.31
2018-09-15T14:41:12.004Z,13.37
2018-09-15T14:42:22.198Z,13.33
2018-09-15T14:43:32.330Z,13.4
2018-09-15T14:44:42.197Z,13.37
2018-09-15T14:45:52.344Z,13.37
2018-09-15T14:47:02.199Z,13.47
2018-09-15T14:48:12.365Z,13.37
2018-09-15T14:49:22.584Z,13.45
2018-09-15T14:50:32.164Z,13.42
2018-09-15T14:51:42.365Z,13.5
2018-09-15T14:52:52.218Z,13.46
2018-09-15T14:54:02.090Z,13.54
2018-09-15T14:55:11.760Z,13.47
2018-09-15T14:56:22.399Z,13.54
2018-09-15T14:57:32.019Z,13.62
2018-09-15T14:58:41.605Z,13.58
2018-09-15T14:59:51.185Z,13.64
2018-09-15T15:01:01.044Z,13.68
2018-09-15T15:02:10.898Z,13.73
2018-09-15T15:03:20.202Z,13.71
2018-09-15T15:04:30.061Z,13.85
2018-09-15T15:05:40.190Z,13.8
2018-09-15T15:06:50.332Z,13.83
2018-09-15T15:08:00.663Z,13.82
2018-09-15T15:09:10.525Z,13.82
2018-09-15T15:10:20.105Z,13.85
2018-09-15T15:11:29.970Z,13.85
2018-09-15T15:12:40.097Z,13.79
2018-09-15T15:13:50.517Z,13.82
2018-09-15T15:15:00.659Z,13.93
2018-09-15T15:16:10.521Z,13.85
2018-09-15T15:17:20.658Z,13.85
2018-09-15T15:18:30.787Z,13.85